createdAt,value
2023-02-24T00:02:20.468Z,100734.19
2023-02-24T00:04:52.099Z,100731.22
2023-02-24T00:07:19.013Z,100728.94
2023-02-24T00:09:46.610Z,100724.72
2023-02-24T00:12:31.044Z,100716.25
2023-02-24T00:14:58.010Z,100714.19
2023-02-24T00:17:28.180Z,100710.84
2023-02-24T00:19:56.901Z,100709.28
2023-02-24T00:22:23.895Z,100703.19
2023-02-24T00:24:50.851Z,100708.34
2023-02-24T00:27:18.356Z,100701.63
2023-02-24T00:29:47.807Z,100703.66
2023-02-24T00:32:27.010Z,100689.75
2023-02-24T00:34:54.541Z,100702.88
2023-02-24T00:37:24.300Z,100690.00
2023-02-24T00:39:58.813Z,100691.28
2023-02-24T00:42:26.011Z,100687.63
2023-02-24T00:44:54.494Z,100670.94
2023-02-24T00:47:28.728Z,100677.41
2023-02-24T00:49:55.752Z,100674.75
2023-02-24T00:52:37.119Z,100664.72
2023-02-24T00:55:14.499Z,100662.22
2023-02-24T00:57:42.067Z,100662.56
2023-02-24T01:00:17.037Z,100663.88
2023-02-24T01:02:48.269Z,100653.75
2023-02-24T01:05:16.514Z,100654.94
2023-02-24T01:07:43.900Z,100653.84
2023-02-24T01:10:14.927Z,100645.19
2023-02-24T01:12:59.566Z,100639.97
2023-02-24T01:15:27.121Z,100631.50
2023-02-24T01:17:56.485Z,100620.72
2023-02-24T01:20:24.122Z,100619.66
2023-02-24T01:22:54.808Z,100605.41
2023-02-24T01:25:22.936Z,100607.19
2023-02-24T01:27:50.982Z,100601.38
2023-02-24T01:30:25.210Z,100606.44
2023-02-24T01:32:52.316Z,100593.34
2023-02-24T01:35:22.163Z,100589.47
2023-02-24T01:37:49.628Z,100586.31
2023-02-24T01:40:21.641Z,100589.13
2023-02-24T01:42:49.814Z,100583.03
2023-02-24T01:45:20.099Z,100587.16
2023-02-24T01:48:01.971Z,100573.00
2023-02-24T01:50:29.379Z,100571.41
2023-02-24T01:52:59.302Z,100570.47
2023-02-24T01:55:31.901Z,100563.53
2023-02-24T01:58:01.152Z,100569.84
2023-02-24T02:00:39.475Z,100561.09
2023-02-24T02:03:13.597Z,100566.03
2023-02-24T02:05:41.584Z,100562.47
2023-02-24T02:08:09.535Z,100547.66
2023-02-24T02:10:39.559Z,100547.66
2023-02-24T02:13:07.039Z,100530.69
2023-02-24T02:15:40.376Z,100542.81
2023-02-24T02:18:14.765Z,100536.25
2023-02-24T02:20:44.499Z,100529.69
2023-02-24T02:23:24.066Z,100532.09
2023-02-24T02:26:10.246Z,100520.81
2023-02-24T02:28:37.219Z,100526.59
2023-02-24T02:31:17.837Z,100510.81
2023-02-24T02:33:55.508Z,100505.03
2023-02-24T02:36:26.124Z,100498.44
2023-02-24T02:38:58.894Z,100502.63
2023-02-24T02:42:05.168Z,100492.00
2023-02-24T02:44:39.961Z,100493.03
2023-02-24T02:47:18.935Z,100489.66
2023-02-24T02:49:50.150Z,100485.50
2023-02-24T02:52:37.009Z,100480.53
2023-02-24T02:55:08.576Z,100477.81
2023-02-24T02:57:38.315Z,100470.56
2023-02-24T03:00:42.467Z,100468.34
2023-02-24T03:03:13.008Z,100465.13
2023-02-24T03:05:47.304Z,100448.59
2023-02-24T03:08:16.212Z,100452.28
2023-02-24T03:10:45.713Z,100443.47
2023-02-24T03:13:13.935Z,100446.28
2023-02-24T03:15:45.141Z,100447.22
2023-02-24T03:18:15.615Z,100444.41
2023-02-24T03:20:49.323Z,100433.63
2023-02-24T03:23:18.394Z,100435.78
2023-02-24T03:25:52.709Z,100431.44
2023-02-24T03:28:26.782Z,100427.63
2023-02-24T03:31:00.661Z,100411.44
2023-02-24T03:33:51.554Z,100412.50
2023-02-24T03:36:18.977Z,100398.63
2023-02-24T03:38:50.152Z,100404.19
2023-02-24T03:41:17.781Z,100396.59
2023-02-24T03:43:58.202Z,100387.53
2023-02-24T03:46:25.881Z,100383.84
2023-02-24T03:48:55.794Z,100378.91
2023-02-24T03:51:31.989Z,100368.44
2023-02-24T03:54:02.229Z,100358.66
2023-02-24T03:56:58.229Z,100357.13
2023-02-24T03:59:40.465Z,100348.72
2023-02-24T04:02:14.701Z,100343.72
2023-02-24T04:04:48.182Z,100332.09
2023-02-24T04:07:15.082Z,100331.47
2023-02-24T04:09:57.501Z,100338.22
2023-02-24T04:12:30.919Z,100320.72
2023-02-24T04:15:00.937Z,100317.69
2023-02-24T04:17:31.930Z,100312.50
2023-02-24T04:20:01.704Z,100302.59
2023-02-24T04:22:30.078Z,100297.06
2023-02-24T04:25:13.898Z,100298.84
2023-02-24T04:27:41.739Z,100274.06
2023-02-24T04:30:12.437Z,100272.56
2023-02-24T04:32:43.009Z,100267.56
2023-02-24T04:35:13.376Z,100261.06
2023-02-24T04:37:40.895Z,100251.34
2023-02-24T04:40:11.275Z,100250.44
2023-02-24T04:42:47.174Z,100250.06
2023-02-24T04:45:16.903Z,100233.94
2023-02-24T04:47:46.363Z,100227.97
2023-02-24T04:50:23.283Z,100223.63
2023-02-24T04:52:51.299Z,100219.00
2023-02-24T04:55:19.827Z,100207.72
2023-02-24T04:57:50.270Z,100209.06
2023-02-24T05:00:25.689Z,100201.31
2023-02-24T05:02:54.526Z,100191.44
2023-02-24T05:05:25.812Z,100190.44
2023-02-24T05:07:53.957Z,100181.38
2023-02-24T05:10:22.854Z,100168.94
2023-02-24T05:12:50.189Z,100166.28
2023-02-24T05:15:33.416Z,100162.63
2023-02-24T05:18:01.254Z,100165.94
2023-02-24T05:20:47.718Z,100149.03
2023-02-24T05:23:17.117Z,100152.03
2023-02-24T05:25:45.532Z,100142.06
2023-02-24T05:28:19.081Z,100138.22
2023-02-24T05:30:46.725Z,100132.13
2023-02-24T05:33:14.335Z,100123.19
2023-02-24T05:35:46.452Z,100132.81
2023-02-24T05:38:14.261Z,100113.91
2023-02-24T05:40:46.881Z,100110.41
2023-02-24T05:43:19.507Z,100112.09
2023-02-24T05:45:48.505Z,100095.31
2023-02-24T05:48:17.109Z,100099.34
2023-02-24T05:51:05.148Z,100089.03
2023-02-24T05:53:32.413Z,100089.72
2023-02-24T05:56:06.961Z,100087.91
2023-02-24T05:58:34.297Z,100076.09
2023-02-24T06:01:07.201Z,100080.94
2023-02-24T06:03:35.817Z,100073.81
2023-02-24T06:06:10.446Z,100070.16
2023-02-24T06:08:42.789Z,100063.56
2023-02-24T06:11:10.987Z,100066.66
2023-02-24T06:13:48.069Z,100061.22
2023-02-24T06:16:19.102Z,100074.44
2023-02-24T06:18:50.439Z,100067.28
2023-02-24T06:21:18.116Z,100055.94
2023-02-24T06:23:45.808Z,100051.59
2023-02-24T06:26:19.709Z,100051.13
2023-02-24T06:28:49.394Z,100043.28
2023-02-24T06:31:17.955Z,100037.47
2023-02-24T06:33:45.716Z,100034.72
2023-02-24T06:36:17.086Z,100030.94
2023-02-24T06:38:44.395Z,100031.03
2023-02-24T06:41:30.152Z,100022.63
2023-02-24T06:43:57.813Z,100014.19
2023-02-24T06:46:25.691Z,100010.84
2023-02-24T06:48:53.115Z,100005.41
2023-02-24T06:51:20.929Z,100000.56
2023-02-24T06:53:49.576Z,99996.81
2023-02-24T06:56:20.070Z,99992.03
2023-02-24T06:58:49.017Z,99987.41
2023-02-24T07:01:18.425Z,99984.41
2023-02-24T07:04:05.139Z,99977.13
2023-02-24T07:06:34.534Z,99961.50
2023-02-24T07:09:09.165Z,99965.72
2023-02-24T07:11:37.740Z,99960.22
2023-02-24T07:14:08.346Z,99960.84
2023-02-24T07:16:36.172Z,99949.25
2023-02-24T07:19:11.300Z,99951.56
2023-02-24T07:21:43.510Z,99938.31
2023-02-24T07:24:13.706Z,99937.88
2023-02-24T07:26:43.003Z,99939.06
2023-02-24T07:29:12.073Z,99936.41
2023-02-24T07:31:40.827Z,99921.84
2023-02-24T07:34:07.786Z,99930.47
2023-02-24T07:36:49.449Z,99916.88
2023-02-24T07:39:17.313Z,99912.91
2023-02-24T07:41:49.831Z,99918.47
2023-02-24T07:44:19.975Z,99910.88
2023-02-24T07:46:49.224Z,99910.41
2023-02-24T07:49:20.278Z,99905.28
2023-02-24T07:51:54.072Z,99893.41
2023-02-24T07:54:21.675Z,99896.00
2023-02-24T07:56:57.158Z,99888.06
2023-02-24T07:59:27.091Z,99887.75
2023-02-24T08:01:56.215Z,99862.56
2023-02-24T08:05:03.121Z,99868.59
2023-02-24T08:07:31.130Z,99869.88
2023-02-24T08:10:10.881Z,99854.69
2023-02-24T08:12:42.749Z,99851.53
2023-02-24T08:15:17.711Z,99841.63
2023-02-24T08:17:47.633Z,99839.41
2023-02-24T08:20:15.685Z,99841.75
2023-02-24T08:22:52.381Z,99835.16
2023-02-24T08:25:25.412Z,99835.31
2023-02-24T08:28:08.874Z,99825.22
2023-02-24T08:30:40.681Z,99812.16
2023-02-24T08:33:22.525Z,99813.34
2023-02-24T08:35:53.482Z,99807.03
2023-02-24T08:38:40.304Z,99797.13
2023-02-24T08:41:11.777Z,99795.81
2023-02-24T08:43:39.930Z,99781.25
2023-02-24T08:46:18.757Z,99778.63
2023-02-24T08:48:48.009Z,99766.03
2023-02-24T08:51:18.215Z,99761.09
2023-02-24T08:53:47.287Z,99763.69
2023-02-24T08:56:15.321Z,99756.09
2023-02-24T08:58:51.820Z,99757.94
2023-02-24T09:01:37.410Z,99751.16
2023-02-24T09:04:06.689Z,99747.34
2023-02-24T09:07:11.825Z,99741.44
2023-02-24T09:09:42.578Z,99743.56
2023-02-24T09:12:24.825Z,99739.75
2023-02-24T09:14:56.000Z,99732.25
2023-02-24T09:17:50.471Z,99719.34
2023-02-24T09:20:28.543Z,99720.00
2023-02-24T09:22:58.099Z,99719.03
2023-02-24T09:25:41.126Z,99718.03
2023-02-24T09:28:17.770Z,99711.25
2023-02-24T09:31:07.841Z,99713.97
2023-02-24T09:33:39.902Z,99709.72
2023-02-24T09:36:30.421Z,99703.34
2023-02-24T09:39:01.328Z,99711.69
2023-02-24T09:41:57.052Z,99697.59
2023-02-24T09:44:37.356Z,99690.56
2023-02-24T09:47:09.687Z,99693.03
2023-02-24T09:49:46.791Z,99683.06
2023-02-24T09:52:18.677Z,99676.41
2023-02-24T09:55:05.966Z,99680.56
2023-02-24T09:57:57.472Z,99680.63
2023-02-24T10:00:36.745Z,99673.13
2023-02-24T10:03:19.962Z,99671.22
2023-02-24T10:06:01.169Z,99666.47
2023-02-24T10:08:33.332Z,99660.47
2023-02-24T10:11:07.385Z,99664.28
2023-02-24T10:13:40.323Z,99651.38
2023-02-24T10:16:10.801Z,99648.59
2023-02-24T10:18:43.695Z,99634.56
2023-02-24T10:21:16.237Z,99631.78
2023-02-24T10:23:45.718Z,99625.88
2023-02-24T10:26:33.610Z,99626.41
2023-02-24T10:29:09.212Z,99629.03
2023-02-24T10:31:46.594Z,99628.28
2023-02-24T10:34:26.602Z,99610.34
2023-02-24T10:36:53.932Z,99609.00
2023-02-24T10:39:33.543Z,99595.19
2023-02-24T10:42:22.664Z,99593.25
2023-02-24T10:45:01.379Z,99591.19
2023-02-24T10:47:33.889Z,99588.31
2023-02-24T10:50:02.050Z,99584.16
2023-02-24T10:52:51.445Z,99589.34
2023-02-24T10:55:43.121Z,99576.03
2023-02-24T10:58:28.197Z,99582.91
2023-02-24T11:01:07.848Z,99562.72
2023-02-24T11:04:12.246Z,99559.78
2023-02-24T11:06:53.676Z,99557.59
2023-02-24T11:09:36.179Z,99556.00
2023-02-24T11:12:32.908Z,99552.16
2023-02-24T11:15:37.220Z,99544.06
2023-02-24T11:18:07.085Z,99536.47
2023-02-24T11:20:56.002Z,99539.13
2023-02-24T11:23:25.307Z,99529.59
2023-02-24T11:25:54.633Z,99517.47
2023-02-24T11:28:58.692Z,99509.94
2023-02-24T11:31:36.690Z,99500.81
2023-02-24T11:34:15.700Z,99501.78
2023-02-24T11:36:54.906Z,99485.53
2023-02-24T11:39:34.448Z,99486.44
2023-02-24T11:42:05.434Z,99483.41
2023-02-24T11:45:07.204Z,99470.38
2023-02-24T11:47:43.475Z,99474.63
2023-02-24T11:50:28.606Z,99456.88
2023-02-24T11:53:07.905Z,99463.22
2023-02-24T11:55:39.524Z,99453.56
2023-02-24T12:02:07.416Z,99437.25
2023-02-24T12:04:34.608Z,99441.31
2023-02-24T12:07:10.270Z,99435.56
2023-02-24T12:09:42.664Z,99436.84
2023-02-24T12:12:14.484Z,99423.81
2023-02-24T12:14:46.306Z,99416.44
2023-02-24T12:17:18.822Z,99423.63
2023-02-24T12:19:52.317Z,99416.63
2023-02-24T12:22:20.780Z,99414.88
2023-02-24T12:24:51.832Z,99418.97
2023-02-24T12:27:40.676Z,99406.38
2023-02-24T12:30:34.768Z,99406.56
2023-02-24T12:33:16.455Z,99395.00
2023-02-24T12:36:03.358Z,99398.25
2023-02-24T12:38:42.457Z,99389.75
2023-02-24T12:41:21.646Z,99384.22
2023-02-24T12:43:49.137Z,99379.03
2023-02-24T12:46:31.340Z,99383.19
2023-02-24T12:49:12.440Z,99370.59
2023-02-24T12:51:46.553Z,99368.13
2023-02-24T12:54:16.949Z,99369.34
2023-02-24T12:56:53.126Z,99360.28
2023-02-24T12:59:34.468Z,99356.41
2023-02-24T13:02:12.389Z,99355.72
2023-02-24T13:04:40.554Z,99352.13
2023-02-24T13:07:50.622Z,99346.34
2023-02-24T13:10:38.547Z,99322.56
2023-02-24T13:13:20.373Z,99315.53
2023-02-24T13:16:07.223Z,99308.53
2023-02-24T13:18:40.163Z,99308.84
2023-02-24T13:21:09.618Z,99296.75
2023-02-24T13:23:41.037Z,99296.66
2023-02-24T13:26:10.594Z,99293.59
2023-02-24T13:28:38.817Z,99301.69
2023-02-24T13:31:08.828Z,99301.66
2023-02-24T13:34:14.684Z,99297.84
2023-02-24T13:36:51.119Z,99294.13
2023-02-24T13:39:38.502Z,99291.34
2023-02-24T13:42:21.897Z,99279.66
2023-02-24T13:45:09.655Z,99282.81
2023-02-24T13:48:07.007Z,99282.41
2023-02-24T13:51:03.599Z,99276.81
2023-02-24T13:53:37.021Z,99276.69
2023-02-24T13:56:11.028Z,99269.72
2023-02-24T13:59:01.272Z,99266.53
2023-02-24T14:01:30.596Z,99280.28
2023-02-24T14:04:03.656Z,99266.88
2023-02-24T14:06:38.626Z,99274.63
2023-02-24T14:09:06.783Z,99262.53
2023-02-24T14:11:36.492Z,99252.94
2023-02-24T14:14:04.327Z,99243.94
2023-02-24T14:16:40.118Z,99252.50
2023-02-24T14:19:12.672Z,99243.13
2023-02-24T14:21:47.066Z,99246.28
2023-02-24T14:24:15.418Z,99235.34
2023-02-24T14:26:46.504Z,99236.56
2023-02-24T14:29:15.193Z,99234.41
2023-02-24T14:31:42.904Z,99236.84
2023-02-24T14:34:16.418Z,99224.69
2023-02-24T14:36:45.688Z,99227.97
2023-02-24T14:39:20.027Z,99223.06
2023-02-24T14:41:48.164Z,99226.53
2023-02-24T14:44:19.386Z,99219.31
2023-02-24T14:46:56.861Z,99225.91
2023-02-24T14:49:26.100Z,99223.47
2023-02-24T14:52:18.254Z,99214.63
2023-02-24T14:54:52.211Z,99209.94
2023-02-24T14:57:22.816Z,99202.50
2023-02-24T14:59:53.150Z,99198.00
2023-02-24T15:02:24.693Z,99195.00
2023-02-24T15:04:54.209Z,99197.16
2023-02-24T15:07:29.156Z,99199.91
2023-02-24T15:09:57.101Z,99202.47
2023-02-24T15:12:29.326Z,99196.03
2023-02-24T15:15:08.340Z,99194.81
2023-02-24T15:17:40.381Z,99190.31
2023-02-24T15:20:29.586Z,99183.53
2023-02-24T15:22:56.458Z,99193.47
2023-02-24T15:25:43.959Z,99182.34
2023-02-24T15:28:39.654Z,99180.69
2023-02-24T15:31:18.014Z,99188.97
2023-02-24T15:33:46.248Z,99205.50
2023-02-24T15:36:19.096Z,99198.03
2023-02-24T15:38:47.123Z,99184.56
2023-02-24T15:41:15.269Z,99181.31
2023-02-24T15:43:56.591Z,99181.69
2023-02-24T15:46:26.738Z,99180.47
2023-02-24T15:48:54.733Z,99164.88
2023-02-24T15:51:25.659Z,99163.69
2023-02-24T15:53:52.932Z,99159.13
2023-02-24T15:56:20.808Z,99163.75
2023-02-24T15:58:47.849Z,99152.38
2023-02-24T16:01:27.778Z,99160.31
2023-02-24T16:03:55.238Z,99161.34
2023-02-24T16:06:30.835Z,99157.84
2023-02-24T16:08:58.512Z,99146.88
2023-02-24T16:11:29.066Z,99144.88
2023-02-24T16:13:59.880Z,99146.72
2023-02-24T16:16:27.747Z,99147.72
2023-02-24T16:18:54.785Z,99138.88
2023-02-24T16:21:23.263Z,99134.19
2023-02-24T16:23:51.272Z,99142.72
2023-02-24T16:26:21.254Z,99144.16
2023-02-24T16:28:52.191Z,99154.66
2023-02-24T16:31:19.825Z,99151.28
2023-02-24T16:33:54.818Z,99144.03
2023-02-24T16:36:23.871Z,99149.25
2023-02-24T16:39:05.180Z,99150.09
2023-02-24T16:41:32.253Z,99149.34
2023-02-24T16:44:29.122Z,99152.78
2023-02-24T16:46:55.742Z,99149.13
2023-02-24T16:49:22.776Z,99144.63
2023-02-24T16:51:51.531Z,99139.94
2023-02-24T16:54:22.060Z,99144.41
2023-02-24T16:56:49.799Z,99140.28
2023-02-24T16:59:17.835Z,99149.22
2023-02-24T17:01:45.370Z,99154.06
2023-02-24T17:04:14.546Z,99161.78
2023-02-24T17:06:46.368Z,99151.56
2023-02-24T17:09:15.773Z,99151.94
2023-02-24T17:11:43.805Z,99155.75
2023-02-24T17:14:17.616Z,99155.69
2023-02-24T17:16:45.058Z,99148.03
2023-02-24T17:19:12.429Z,99163.44
2023-02-24T17:21:43.118Z,99161.16
2023-02-24T17:24:17.203Z,99154.44
2023-02-24T17:26:44.739Z,99152.44
2023-02-24T17:29:18.819Z,99155.38
2023-02-24T17:31:46.594Z,99158.22
2023-02-24T17:34:14.478Z,99158.94
2023-02-24T17:36:42.189Z,99165.25
2023-02-24T17:39:09.067Z,99158.66
2023-02-24T17:41:36.402Z,99158.81
2023-02-24T17:44:04.359Z,99162.38
2023-02-24T17:46:32.476Z,99160.59
2023-02-24T17:49:00.516Z,99154.16
2023-02-24T17:51:41.618Z,99152.56
2023-02-24T17:54:08.817Z,99149.50
2023-02-24T17:56:36.895Z,99169.13
2023-02-24T17:59:04.204Z,99160.50
2023-02-24T18:01:33.670Z,99162.44
2023-02-24T18:04:01.129Z,99160.91
2023-02-24T18:06:28.575Z,99167.53
2023-02-24T18:08:56.685Z,99169.25
2023-02-24T18:11:24.166Z,99163.41
2023-02-24T18:13:55.309Z,99167.84
2023-02-24T18:16:23.313Z,99167.19
2023-02-24T18:18:50.843Z,99165.84
2023-02-24T18:21:18.009Z,99164.00
2023-02-24T18:23:45.081Z,99165.31
2023-02-24T18:26:20.973Z,99172.38
2023-02-24T18:28:52.200Z,99174.09
2023-02-24T18:31:20.676Z,99168.81
2023-02-24T18:33:48.094Z,99175.81
2023-02-24T18:36:17.743Z,99176.38
2023-02-24T18:38:45.905Z,99182.53
2023-02-24T18:41:18.752Z,99173.63
2023-02-24T18:43:51.426Z,99176.47
2023-02-24T18:46:21.443Z,99172.34
2023-02-24T18:48:50.354Z,99165.72
2023-02-24T18:51:20.096Z,99162.88
2023-02-24T18:53:47.479Z,99174.91
2023-02-24T18:56:23.544Z,99164.13
2023-02-24T18:58:52.614Z,99169.56
2023-02-24T19:01:22.677Z,99166.34
2023-02-24T19:03:50.874Z,99168.38
2023-02-24T19:06:21.947Z,99170.75
2023-02-24T19:08:55.131Z,99173.41
2023-02-24T19:11:21.837Z,99174.31
2023-02-24T19:13:48.569Z,99178.06
2023-02-24T19:16:54.760Z,99176.31
2023-02-24T19:19:22.969Z,99170.44
2023-02-24T19:21:52.656Z,99172.22
2023-02-24T19:24:20.904Z,99179.34
2023-02-24T19:26:48.623Z,99174.94
2023-02-24T19:29:17.357Z,99169.38
2023-02-24T19:31:46.161Z,99168.75
2023-02-24T19:34:19.360Z,99173.94
2023-02-24T19:36:46.570Z,99166.53
2023-02-24T19:39:14.958Z,99171.25
2023-02-24T19:41:57.455Z,99167.03
2023-02-24T19:44:25.296Z,99167.13
2023-02-24T19:47:05.008Z,99162.44
2023-02-24T19:49:31.806Z,99168.28
2023-02-24T19:52:01.418Z,99166.31
2023-02-24T19:54:29.179Z,99169.88
2023-02-24T19:56:58.068Z,99165.59
2023-02-24T19:59:27.170Z,99161.16
2023-02-24T20:02:05.919Z,99168.00
2023-02-24T20:04:33.144Z,99169.13
2023-02-24T20:07:01.218Z,99171.91
2023-02-24T20:09:28.660Z,99170.75
2023-02-24T20:11:59.437Z,99168.34
2023-02-24T20:14:47.327Z,99182.66
2023-02-24T20:17:15.314Z,99173.06
2023-02-24T20:19:43.983Z,99182.94
2023-02-24T20:22:11.021Z,99188.59
2023-02-24T20:24:45.365Z,99185.91
2023-02-24T20:27:12.917Z,99188.97
2023-02-24T20:29:41.371Z,99188.50
2023-02-24T20:32:08.676Z,99198.34
2023-02-24T20:34:37.148Z,99196.38
2023-02-24T20:37:22.782Z,99192.81
2023-02-24T20:39:52.000Z,99194.47
2023-02-24T20:42:27.327Z,99193.13
2023-02-24T20:44:54.579Z,99194.09
2023-02-24T20:47:23.890Z,99201.03
2023-02-24T20:49:51.676Z,99200.88
2023-02-24T20:52:26.066Z,99201.69
2023-02-24T20:54:53.095Z,99205.38
2023-02-24T20:57:33.521Z,99217.91
2023-02-24T21:00:08.889Z,99210.97
2023-02-24T21:02:37.408Z,99214.09
2023-02-24T21:05:05.494Z,99214.28
2023-02-24T21:07:32.875Z,99215.19
2023-02-24T21:10:02.715Z,99218.72
2023-02-24T21:12:29.624Z,99221.78
2023-02-24T21:14:58.192Z,99209.81
2023-02-24T21:17:25.394Z,99216.72
2023-02-24T21:19:52.807Z,99225.56
2023-02-24T21:22:31.404Z,99225.56
2023-02-24T21:24:59.962Z,99244.03
2023-02-24T21:27:29.292Z,99234.81
2023-02-24T21:29:56.307Z,99245.69
2023-02-24T21:32:23.805Z,99244.13
2023-02-24T21:34:55.177Z,99244.38
2023-02-24T21:37:22.562Z,99256.34
2023-02-24T21:39:49.718Z,99249.34
2023-02-24T21:42:30.370Z,99243.81
2023-02-24T21:45:02.570Z,99250.50
2023-02-24T21:47:33.149Z,99253.84
2023-02-24T21:50:02.719Z,99254.34
2023-02-24T21:52:30.386Z,99258.88
2023-02-24T21:54:58.318Z,99269.50
2023-02-24T21:57:25.505Z,99267.50
2023-02-24T21:59:52.975Z,99269.38
2023-02-24T22:02:21.036Z,99289.00
2023-02-24T22:04:50.022Z,99280.59
2023-02-24T22:07:17.548Z,99273.75
2023-02-24T22:09:45.132Z,99281.53
2023-02-24T22:12:12.525Z,99279.56
2023-02-24T22:14:40.108Z,99278.31
2023-02-24T22:17:07.734Z,99288.69
2023-02-24T22:19:36.852Z,99287.19
2023-02-24T22:22:04.164Z,99285.81
2023-02-24T22:24:33.053Z,99293.22
2023-02-24T22:27:03.069Z,99300.03
2023-02-24T22:29:31.512Z,99295.75
2023-02-24T22:31:59.281Z,99301.34
2023-02-24T22:34:27.083Z,99304.31
2023-02-24T22:36:56.648Z,99297.91
2023-02-24T22:39:23.692Z,99293.06
2023-02-24T22:41:51.739Z,99310.00
2023-02-24T22:44:19.670Z,99314.72
2023-02-24T22:46:47.739Z,99308.13
2023-02-24T22:49:15.394Z,99317.03
2023-02-24T22:51:42.629Z,99320.56
2023-02-24T22:54:10.179Z,99322.25
2023-02-24T22:56:38.196Z,99324.28
2023-02-24T22:59:11.888Z,99316.66
2023-02-24T23:01:39.888Z,99327.69
2023-02-24T23:04:08.850Z,99322.81
2023-02-24T23:06:41.947Z,99232.94
2023-02-24T23:09:12.337Z,99332.81
2023-02-24T23:11:43.568Z,99333.16
2023-02-24T23:14:14.309Z,99342.22
2023-02-24T23:16:42.470Z,99345.88
2023-02-24T23:19:13.521Z,99347.84
2023-02-24T23:21:41.701Z,99343.56
2023-02-24T23:24:09.409Z,99346.94
2023-02-24T23:26:42.669Z,99349.94
2023-02-24T23:29:10.791Z,99353.16
2023-02-24T23:31:41.263Z,99361.00
2023-02-24T23:34:09.135Z,99353.25
2023-02-24T23:36:37.812Z,99348.00
2023-02-24T23:39:05.254Z,99354.53
2023-02-24T23:41:37.001Z,99360.63
2023-02-24T23:44:05.849Z,99362.19
2023-02-24T23:46:33.717Z,99364.06
2023-02-24T23:49:09.097Z,99366.06
2023-02-24T23:51:47.457Z,99376.78
2023-02-24T23:54:15.923Z,99382.13
2023-02-24T23:56:43.013Z,99379.41
2023-02-24T23:59:18.576Z,99381.09
